• Join FlightAware (Why Join?)
  • Login
  • US Flag 
05:49AM EST


 

Airport Tracker/Info


-or-


 

Live Flight TrackerFlight Track Log ✈ CPT7773 ✈ 21-Jun-2013 ✈ KCOD - KCPR

Flight Track Log - Related Links

Times and Time Zones

All times are in EDT time to prevent confusion due to time zone crossing. See the CPT7773 flight status page for this flight to view local times or setup timezone preferences in your user account.

Time Position Orientation Groundspeed Altitude Reporting Facility
EDT Latitude Longitude Course Direction KTS MPH feet Rate Location/Type
08:10PM 44.3782 -108.7071 120° Southeast  Level FlightAware Approximate
08:11PM 44.3562 -108.6542 120° Southeast  Level FlightAware Approximate
08:12PM 44.3342 -108.6014 120° Southeast  Level FlightAware Approximate
08:13PM 44.3122 -108.5486 120° Southeast  Level FlightAware Approximate
08:14PM 44.2902 -108.4959 120° Southeast  Level FlightAware Approximate
08:15PM 44.2681 -108.4432 120° Southeast  Level FlightAware Approximate
08:16PM 44.2447 -108.3920 133° Southeast  Level FlightAware Approximate
08:17PM 44.2149 -108.3473 133° Southeast  Level FlightAware Approximate
08:18PM 44.1852 -108.3026 133° Southeast  Level FlightAware Approximate
08:19PM 44.1554 -108.2580 133° Southeast  Level FlightAware Approximate
08:20PM 44.1256 -108.2134 133° Southeast  Level FlightAware Approximate
08:21PM 44.0959 -108.1688 133° Southeast  Level FlightAware Approximate
08:22PM 44.0662 -108.1241 133° Southeast  Level FlightAware Approximate
08:23PM 44.0365 -108.0795 133° Southeast  Level FlightAware Approximate
08:24PM 44.0068 -108.0350 133° Southeast  Level FlightAware Approximate
08:25PM 43.9771 -107.9905 133° Southeast  Level FlightAware Approximate
08:26PM 43.9480 -107.9453 120° Southeast  Level FlightAware Approximate
08:27PM 43.9262 -107.8927 120° Southeast  Level FlightAware Approximate
08:28PM 43.9043 -107.8402 120° Southeast  Level FlightAware Approximate
08:29PM 43.8824 -107.7877 120° Southeast  Level FlightAware Approximate
08:30PM 43.8591 -107.7365 128° Southeast  Level FlightAware Approximate
08:31PM 43.8322 -107.6888 128° Southeast  Level FlightAware Approximate
08:32PM 43.8054 -107.6410 128° Southeast  Level FlightAware Approximate
08:32PM 43.8950 -107.8150 128° Southeast 164 189 11,000  Level Denver Center
08:33PM 43.7784 -107.5933 128° Southeast  Level FlightAware Approximate
08:34PM 43.8443 -107.7439 135° Southeast  Level Estimated
08:34PM 43.7515 -107.5456 128° Southeast  Level FlightAware Approximate
08:35PM 43.7246 -107.4980 128° Southeast  Level FlightAware Approximate
08:36PM 43.6976 -107.4504 128° Southeast  Level FlightAware Approximate
08:37PM 43.6706 -107.4029 128° Southeast  Level FlightAware Approximate
08:41PM 43.6285 -107.4438 135° Southeast  Level Estimated
08:41PM 43.5717 -107.1822 135° Southeast 164 189 11,000  Level Denver Center
08:42PM 43.5976 -107.4011 135° Southeast  Level Estimated
08:42PM 43.5453 -107.1328 126° Southeast 166 191 11,100  Level Denver Center
08:43PM 43.5667 -107.3584 135° Southeast  Level Estimated
08:43PM 43.5208 -107.0839 125° Southeast 164 189 11,100  Level Denver Center
08:44PM 43.5358 -107.3158 135° Southeast  Level Estimated
08:44PM 43.4903 -107.0281 127° Southeast 163 188 11,000  Level Denver Center
08:45PM 43.5049 -107.2732 135° Southeast  Level Estimated
08:45PM 43.4619 -106.9767 127° Southeast 162 186 11,100  Level Denver Center
08:46PM 43.4739 -107.2307 135° Southeast  Level Estimated
08:46PM 43.4369 -106.9256 124° Southeast 160 184 11,100  Level Denver Center
08:47PM 43.4114 -106.8781 127° Southeast 160 184 11,100  Level Denver Center
08:48PM 43.3817 -106.8231 127° Southeast 160 184 11,100 -120 Level Denver Center
08:49PM 43.3539 -106.7819 133° Southeast 156 180 10,900 -240 Descending Denver Center
08:50PM 43.3064 -106.7556 158° South 156 180 10,700 -240 Descending Denver Center
08:51PM 43.2667 -106.7272 153° Southeast 163 188 10,500 -300 Descending Denver Center
08:52PM 43.2217 -106.6931 151° Southeast 165 190 10,200 -300 Descending Denver Center
08:53PM 43.1822 -106.6625 151° Southeast 167 192 10,000 -300 Descending Denver Center
08:54PM 43.1408 -106.6339 153° Southeast 171 197 9,700 -300 Descending Denver Center
08:55PM 43.0936 -106.5992 152° Southeast 172 198 9,400 -480 Descending Denver Center
08:56PM 43.0517 -106.5692 152° Southeast 174 200 8,800 -840 Descending Denver Center
08:57PM 43.0000 -106.5303 151° Southeast 182 209 7,700 -1,020 Descending Denver Center
08:58PM 42.9533 -106.5028 157° South 186 214 6,800 -540 Descending Denver Center
08:59PM 42.9011 -106.4736 158° South 187 215 6,600 -240 Descending Denver Center
09:01PM 42.9080 -106.4644 150° Southeast  Level Estimated
09:08PM 42.9080 -106.4644 150° Southeast  Level Estimated
09:09PM 42.9080 -106.4644 150° Southeast  Level Estimated
09:10PM 42.9080 -106.4644 150° Southeast  Level Estimated